Time;durP1;ratioP1;P1;durP2;ratioP2;P2;SDS_P1;SDS_P2;PMS_P1;PMS_P2;Temp;Humidity;BMP_temperature;BMP_pressure;BME280_temperature;BME280_humidity;BME280_pressure;Samples;Min_cycle;Max_cycle;Signal;HPM_P1;HPM_P2
2022/02/12 00:01:03;;;;;;;27.40;10.80;;;;;;;0.34;85.39;102032.41;1717580;82;21074;-72
2022/02/12 00:03:30;;;;;;;41.95;14.87;;;;;;;0.31;85.40;102039.97;1715583;81;21005;-72
2022/02/12 00:05:56;;;;;;;40.65;12.90;;;;;;;0.28;85.38;102047.94;1704521;82;21142;-72
2022/02/12 00:08:22;;;;;;;36.17;11.53;;;;;;;0.24;85.38;102056.87;1688514;82;21610;-72
2022/02/12 00:10:48;;;;;;;53.87;18.75;;;;;;;0.21;85.38;102060.91;1705224;84;21039;-72
2022/02/12 00:13:14;;;;;;;50.67;17.02;;;;;;;0.16;85.35;102064.20;1690390;84;20929;-72
2022/02/12 00:15:40;;;;;;;48.68;14.43;;;;;;;0.11;85.35;102063.52;1702221;84;21068;-72
2022/02/12 00:18:07;;;;;;;34.53;12.03;;;;;;;0.05;85.35;102072.95;1692746;84;21088;-72
2022/02/12 00:20:34;;;;;;;62.58;21.90;;;;;;;0.03;85.33;102081.36;1701665;82;21537;-72
2022/02/12 00:23:00;;;;;;;84.65;30.00;;;;;;;-0.01;85.34;102087.63;1698421;83;21613;-72
2022/02/12 00:25:26;;;;;;;66.87;22.00;;;;;;;-0.06;85.35;102086.95;1690695;84;21447;-72
2022/02/12 00:27:52;;;;;;;52.23;18.48;;;;;;;-0.12;85.30;102084.13;1690197;84;21009;-72
2022/02/12 00:30:18;;;;;;;57.60;18.82;;;;;;;-0.17;85.30;102089.99;1701268;82;21152;-72
2022/02/12 00:32:44;;;;;;;68.70;20.02;;;;;;;-0.21;85.31;102090.20;1708602;83;21009;-72
2022/02/12 00:35:10;;;;;;;56.73;15.25;;;;;;;-0.26;85.30;102093.44;1710046;83;20944;-72
2022/02/12 00:37:36;;;;;;;50.65;14.23;;;;;;;-0.31;85.28;102101.92;1707965;84;21063;-72
2022/02/12 00:40:03;;;;;;;37.70;11.75;;;;;;;-0.34;85.27;102104.22;1699695;83;21077;-72
2022/02/12 00:42:29;;;;;;;22.20;9.20;;;;;;;-0.36;85.26;102110.44;1690227;84;21333;-72
2022/02/12 00:44:55;;;;;;;35.78;10.60;;;;;;;-0.37;85.24;102108.72;1690142;84;21006;-72
2022/02/12 00:47:21;;;;;;;326.65;102.53;;;;;;;-0.40;85.24;102120.63;1690228;82;21070;-72
2022/02/12 00:49:47;;;;;;;371.93;90.38;;;;;;;-0.45;85.22;102123.86;1689868;83;21021;-71
2022/02/12 00:52:13;;;;;;;103.65;21.87;;;;;;;-0.49;85.24;102127.54;1698185;84;21120;-72
2022/02/12 00:54:40;;;;;;;41.68;10.90;;;;;;;-0.51;85.24;102132.82;1697344;83;21513;-72
2022/02/12 00:57:06;;;;;;;47.38;12.95;;;;;;;-0.53;85.22;102131.55;1663872;84;21101;-72
2022/02/12 00:59:33;;;;;;;47.50;11.35;;;;;;;-0.56;85.23;102126.44;1671215;84;21079;-72
2022/02/12 01:01:59;;;;;;;55.58;15.85;;;;;;;-0.59;85.22;102130.48;1683908;85;20919;-72
2022/02/12 01:04:25;;;;;;;56.80;14.90;;;;;;;-0.61;85.25;102132.31;1673794;85;21216;-72
2022/02/12 01:06:51;;;;;;;74.15;20.75;;;;;;;-0.63;85.26;102138.05;1690401;84;21147;-72
2022/02/12 01:09:17;;;;;;;44.18;14.15;;;;;;;-0.65;85.28;102137.27;1690185;84;21034;-72
2022/02/12 01:11:43;;;;;;;43.92;12.53;;;;;;;-0.66;85.29;102150.41;1689838;84;21642;-72
2022/02/12 01:14:10;;;;;;;22.37;9.05;;;;;;;-0.68;85.31;102149.17;1690293;84;21006;-72
2022/02/12 01:16:36;;;;;;;18.87;6.45;;;;;;;-0.70;85.34;102151.42;1690022;84;21069;-72
2022/02/12 01:19:02;;;;;;;18.42;7.72;;;;;;;-0.72;85.35;102156.73;1690100;84;21138;-72
2022/02/12 01:21:28;;;;;;;22.95;8.70;;;;;;;-0.75;85.38;102158.16;1700151;84;21073;-72
2022/02/12 01:23:55;;;;;;;17.42;9.68;;;;;;;-0.76;85.38;102156.44;1700348;84;20930;-72
2022/02/12 01:26:21;;;;;;;13.18;6.58;;;;;;;-0.79;85.41;102164.41;1690398;84;21474;-72
2022/02/12 01:28:47;;;;;;;20.70;7.25;;;;;;;-0.81;85.41;102163.59;1699858;84;21083;-72
2022/02/12 01:31:14;;;;;;;13.85;5.30;;;;;;;-0.85;85.43;102164.63;1676036;84;21146;-72
2022/02/12 01:33:41;;;;;;;14.87;4.50;;;;;;;-0.87;85.43;102171.67;1639671;86;39733;-72
2022/02/12 01:36:07;;;;;;;12.35;4.25;;;;;;;-0.89;85.45;102166.09;1661000;86;21085;-71
2022/02/12 01:38:33;;;;;;;15.43;5.00;;;;;;;-0.90;85.47;102172.23;1660695;86;21568;-72
2022/02/12 01:40:59;;;;;;;19.15;4.67;;;;;;;-0.93;85.48;102171.89;1660946;86;21042;-72
2022/02/12 01:43:25;;;;;;;14.15;4.65;;;;;;;-0.96;85.47;102173.31;1661011;86;21768;-71
2022/02/12 01:45:51;;;;;;;13.83;4.03;;;;;;;-0.97;85.47;102183.38;1660805;86;20895;-72
2022/02/12 01:48:18;;;;;;;12.58;4.42;;;;;;;-0.99;85.47;102186.52;1660697;85;21105;-71
2022/02/12 01:50:48;;;;;;;12.65;5.12;;;;;;;-1.03;85.50;102186.21;1660779;86;21100;-71
2022/02/12 01:53:14;;;;;;;11.03;5.47;;;;;;;-1.06;85.52;102195.48;1660948;85;21046;-71
2022/02/12 01:55:40;;;;;;;12.40;5.72;;;;;;;-1.10;85.54;102196.04;1660946;86;21176;-72
2022/02/12 01:58:09;;;;;;;18.00;6.58;;;;;;;-1.13;85.54;102202.69;1660732;86;21058;-71
2022/02/12 02:00:35;;;;;;;20.15;4.83;;;;;;;-1.16;85.55;102198.02;1660752;85;21050;-71
2022/02/12 02:03:01;;;;;;;20.02;11.45;;;;;;;-1.19;85.57;102197.64;1662804;83;21014;-71
2022/02/12 02:05:27;;;;;;;18.02;6.80;;;;;;;-1.21;85.58;102203.84;1705827;83;21006;-71
2022/02/12 02:07:53;;;;;;;12.43;5.62;;;;;;;-1.25;85.58;102203.08;1699419;84;21101;-71
2022/02/12 02:10:19;;;;;;;8.63;4.72;;;;;;;-1.26;85.61;102218.82;1688666;85;20977;-71
2022/02/12 02:12:45;;;;;;;11.88;4.45;;;;;;;-1.28;85.60;102221.95;1688668;85;21478;-72
2022/02/12 02:15:11;;;;;;;17.70;5.72;;;;;;;-1.30;85.61;102220.69;1688466;85;21668;-71
2022/02/12 02:17:37;;;;;;;19.80;5.00;;;;;;;-1.31;85.62;102224.23;1688487;84;21490;-71
2022/02/12 02:20:06;;;;;;;14.95;5.10;;;;;;;-1.33;85.63;102222.09;1688269;85;21891;-71
2022/02/12 02:22:51;;;;;;;15.15;4.25;;;;;;;-1.35;85.64;102220.44;1698886;84;21478;-72
2022/02/12 02:25:17;;;;;;;14.40;5.22;;;;;;;-1.37;85.66;102226.19;1688287;85;21065;-72
2022/02/12 02:27:43;;;;;;;20.68;5.47;;;;;;;-1.40;85.66;102228.88;1698758;84;21097;-72
2022/02/12 02:30:20;;;;;;;24.75;10.53;;;;;;;-1.43;85.69;102226.36;1688256;85;21058;-72
2022/02/12 02:32:46;;;;;;;22.15;13.35;;;;;;;-1.43;85.69;102230.28;1688715;85;21876;-72
2022/02/12 02:35:13;;;;;;;29.45;16.90;;;;;;;-1.46;85.69;102229.08;1688636;85;21736;-71
2022/02/12 02:37:39;;;;;;;23.65;11.38;;;;;;;-1.46;85.70;102230.39;1688523;85;21054;-71
2022/02/12 02:40:15;;;;;;;26.07;10.90;;;;;;;-1.47;85.71;102232.59;1688774;85;21025;-72
2022/02/12 02:42:44;;;;;;;21.80;9.95;;;;;;;-1.49;85.72;102231.80;1688501;85;21455;-71
2022/02/12 02:45:12;;;;;;;16.32;6.97;;;;;;;-1.49;85.73;102237.03;1688770;84;21911;-71
2022/02/12 02:47:41;;;;;;;19.52;6.22;;;;;;;-1.53;85.73;102241.05;1688125;83;21047;-71
2022/02/12 02:58:37;;;;;;;15.88;5.15;;;;;;;-1.59;85.80;102237.33;1656573;86;21111;-71
2022/02/12 03:01:16;;;;;;;16.42;4.75;;;;;;;-1.61;85.80;102233.89;1685231;85;21065;-71
2022/02/12 03:03:45;;;;;;;10.85;4.95;;;;;;;-1.64;85.83;102231.82;1658199;86;21025;-71
2022/02/12 03:06:13;;;;;;;23.35;7.42;;;;;;;-1.65;85.87;102241.87;1668430;86;21055;-71
2022/02/12 03:08:39;;;;;;;19.30;8.48;;;;;;;-1.68;85.88;102237.59;1687486;85;21499;-71
2022/02/12 03:11:05;;;;;;;18.10;7.45;;;;;;;-1.71;85.88;102250.77;1658264;86;21650;-71
2022/02/12 03:13:32;;;;;;;13.53;7.97;;;;;;;-1.74;85.89;102254.79;1687449;85;21008;-71
2022/02/12 03:15:58;;;;;;;23.45;11.18;;;;;;;-1.73;85.90;102256.52;1668392;86;21356;-71
2022/02/12 03:18:24;;;;;;;27.40;13.38;;;;;;;-1.71;85.92;102261.23;1700093;84;21061;-71
2022/02/12 03:20:50;;;;;;;20.60;7.92;;;;;;;-1.72;85.94;102263.87;1686739;84;21506;-71
2022/02/12 03:23:18;;;;;;;15.98;6.80;;;;;;;-1.74;85.95;102267.86;1696710;84;21550;-71
2022/02/12 03:25:44;;;;;;;17.85;6.55;;;;;;;-1.73;85.95;102270.89;1684536;84;20999;-71
2022/02/12 03:28:11;;;;;;;16.57;4.97;;;;;;;-1.77;85.97;102266.66;1700076;84;25863;-71
2022/02/12 03:30:45;;;;;;;11.57;4.58;;;;;;;-1.78;86.00;102270.16;1658361;86;21078;-71
2022/02/12 03:33:11;;;;;;;12.60;4.10;;;;;;;-1.79;86.01;102269.75;1687650;84;21430;-71
2022/02/12 03:35:37;;;;;;;10.80;3.83;;;;;;;-1.78;86.01;102275.39;1668715;86;21724;-71
2022/02/12 03:38:20;;;;;;;12.82;3.95;;;;;;;-1.78;86.05;102287.60;1700064;84;21001;-72
2022/02/12 03:40:49;;;;;;;9.40;3.60;;;;;;;-1.76;86.07;102293.19;1658475;86;21090;-71
2022/02/12 03:43:16;;;;;;;12.98;4.95;;;;;;;-1.76;86.07;102288.44;1687425;84;21004;-71
2022/02/12 03:45:42;;;;;;;12.55;5.05;;;;;;;-1.75;86.11;102290.98;1658321;86;21054;-71
2022/02/12 03:48:09;;;;;;;9.53;4.25;;;;;;;-1.76;86.11;102293.19;1687486;83;21532;-72
2022/02/12 03:50:36;;;;;;;13.60;3.90;;;;;;;-1.77;86.12;102296.73;1686943;84;21048;-71
2022/02/12 03:53:05;;;;;;;14.60;4.00;;;;;;;-1.78;86.16;102298.92;1687592;85;21553;-71
2022/02/12 03:55:36;;;;;;;16.60;3.52;;;;;;;-1.81;86.18;102295.09;1687423;84;21037;-72
2022/02/12 03:57:58;;;;;;;19.87;6.37;;;;;;;-1.81;86.20;102302.94;1658191;85;21026;-72
2022/02/12 04:00:25;;;;;;;20.50;6.25;;;;;;;-1.82;86.23;102307.75;1687143;84;20994;-71
2022/02/12 04:02:51;;;;;;;10.88;4.33;;;;;;;-1.83;86.26;102304.72;1639834;86;21055;-72
2022/02/12 04:05:17;;;;;;;13.45;3.65;;;;;;;-1.85;86.27;102302.62;1658504;86;21049;-71
2022/02/12 04:07:43;;;;;;;10.60;3.47;;;;;;;-1.86;86.28;102310.48;1639859;87;21050;-71
2022/02/12 04:10:16;;;;;;;9.20;3.33;;;;;;;-1.86;86.28;102302.20;1644950;87;21034;-71
2022/02/12 04:12:43;;;;;;;12.63;4.10;;;;;;;-1.88;86.29;102305.33;1670222;86;21093;-72
2022/02/12 04:15:10;;;;;;;11.55;3.72;;;;;;;-1.87;86.32;102303.12;1630095;87;21095;-72
2022/02/12 04:17:36;;;;;;;14.35;4.25;;;;;;;-1.89;86.33;102312.75;1639670;87;21030;-71
2022/02/12 04:20:09;;;;;;;13.85;3.98;;;;;;;-1.91;86.35;102310.64;1639865;87;21106;-71
2022/02/12 04:22:35;;;;;;;11.97;3.90;;;;;;;-1.91;86.37;102315.02;1640283;85;21562;-71
2022/02/12 04:25:02;;;;;;;13.70;3.70;;;;;;;-1.91;86.39;102318.48;1687812;85;21523;-71
2022/02/12 04:27:28;;;;;;;14.53;4.33;;;;;;;-1.91;86.40;102322.41;1687125;85;21058;-71
2022/02/12 04:29:54;;;;;;;12.28;4.42;;;;;;;-1.93;86.42;102317.66;1687630;84;21565;-71
2022/02/12 04:32:20;;;;;;;14.85;5.20;;;;;;;-1.92;86.44;102319.38;1658337;86;21519;-71
2022/02/12 04:34:48;;;;;;;14.95;6.95;;;;;;;-1.94;86.45;102322.50;1687563;84;21510;-72
2022/02/12 04:37:15;;;;;;;13.90;4.42;;;;;;;-1.94;86.46;102319.02;1684318;84;21049;-72
2022/02/12 04:39:41;;;;;;;88.07;25.77;;;;;;;-1.96;86.46;102316.44;1699839;83;21065;-71
2022/02/12 04:42:11;;;;;;;37.33;12.00;;;;;;;-1.92;86.50;102318.52;1656526;86;21116;-71
2022/02/12 04:44:35;;;;;;;17.70;5.05;;;;;;;-1.93;86.51;102320.27;1686041;84;21121;-71
2022/02/12 04:47:02;;;;;;;12.68;4.25;;;;;;;-1.96;86.52;102319.50;1656775;86;21003;-71
2022/02/12 04:49:28;;;;;;;12.85;4.72;;;;;;;-2.00;86.53;102317.42;1685873;83;21144;-71
2022/02/12 04:51:54;;;;;;;15.58;4.22;;;;;;;-2.03;86.55;102320.12;1687145;85;26887;-71
2022/02/12 04:54:20;;;;;;;16.45;4.20;;;;;;;-2.07;86.55;102315.88;1687279;84;20954;-71
2022/02/12 04:56:46;;;;;;;11.38;4.28;;;;;;;-2.11;86.55;102315.59;1667682;85;20895;-72
2022/02/12 04:59:12;;;;;;;9.78;4.90;;;;;;;-2.15;86.55;102317.87;1668558;86;21041;-72
2022/02/12 05:01:38;;;;;;;17.40;5.78;;;;;;;-2.16;86.56;102318.76;1668378;86;21534;-71
2022/02/12 05:04:04;;;;;;;15.65;7.12;;;;;;;-2.16;86.58;102320.06;1668418;86;21526;-71
2022/02/12 05:06:30;;;;;;;19.25;10.63;;;;;;;-2.17;86.59;102315.73;1668485;86;26530;-71
2022/02/12 05:08:56;;;;;;;19.60;7.65;;;;;;;-2.18;86.61;102315.34;1668285;86;21099;-71
2022/02/12 05:11:22;;;;;;;24.47;12.63;;;;;;;-2.21;86.61;102312.34;1668406;86;21011;-71
2022/02/12 05:13:48;;;;;;;28.98;20.00;;;;;;;-2.22;86.63;102317.63;1667881;86;21195;-71
2022/02/12 05:16:14;;;;;;;24.07;15.00;;;;;;;-2.25;86.63;102315.94;1668367;86;21046;-71
2022/02/12 05:18:40;;;;;;;16.23;9.83;;;;;;;-2.25;86.64;102321.64;1687455;84;20975;-71
2022/02/12 05:21:06;;;;;;;15.88;7.35;;;;;;;-2.27;86.66;102329.50;1687423;85;21498;-71
2022/02/12 05:23:32;;;;;;;16.93;6.95;;;;;;;-2.27;86.63;102327.33;1668314;86;21997;-71
2022/02/12 05:25:58;;;;;;;10.20;4.25;;;;;;;-2.29;86.67;102323.92;1668003;84;21799;-71
2022/02/12 05:28:24;;;;;;;11.28;4.00;;;;;;;-2.30;86.66;102328.73;1699824;84;27490;-71
2022/02/12 05:30:50;;;;;;;13.68;4.08;;;;;;;-2.32;86.67;102331.36;1657913;86;25897;-71
2022/02/12 05:33:16;;;;;;;16.90;5.30;;;;;;;-2.32;86.67;102332.67;1668033;86;20942;-71
2022/02/12 05:35:42;;;;;;;14.50;5.60;;;;;;;-2.32;86.68;102334.45;1668371;86;21539;-72
2022/02/12 05:38:08;;;;;;;21.90;4.95;;;;;;;-2.35;86.68;102340.59;1668488;85;21545;-71
2022/02/12 05:40:34;;;;;;;19.10;7.33;;;;;;;-2.34;86.69;102344.06;1699860;84;21509;-71
2022/02/12 05:43:02;;;;;;;27.52;10.13;;;;;;;-2.34;86.72;102344.93;1668381;85;21637;-71
2022/02/12 05:45:28;;;;;;;24.00;7.15;;;;;;;-2.35;86.71;102348.87;1700240;84;21005;-71
2022/02/12 05:47:54;;;;;;;13.75;4.65;;;;;;;-2.33;86.72;102352.33;1668273;85;21018;-71
2022/02/12 05:50:21;;;;;;;14.75;5.33;;;;;;;-2.34;86.74;102349.30;1633662;85;21678;-71
2022/02/12 05:52:47;;;;;;;15.88;7.15;;;;;;;-2.35;86.74;102354.97;1641901;86;21082;-71
2022/02/12 05:55:13;;;;;;;24.47;7.75;;;;;;;-2.33;86.75;102358.86;1675435;85;21060;-71
2022/02/12 05:57:39;;;;;;;10.68;5.20;;;;;;;-2.33;86.75;102353.62;1675292;85;21028;-71
2022/02/12 06:00:07;;;;;;;12.03;4.62;;;;;;;-2.30;86.78;102353.55;1693748;82;21043;-71
2022/02/12 06:02:33;;;;;;;14.98;4.87;;;;;;;-2.31;86.77;102361.83;1716158;82;21150;-72
2022/02/12 06:04:59;;;;;;;15.63;4.53;;;;;;;-2.34;86.77;102354.52;1705234;84;26851;-71
2022/02/12 06:07:25;;;;;;;12.55;5.22;;;;;;;-2.33;86.79;102371.92;1705141;84;25707;-71
2022/02/12 06:09:51;;;;;;;16.52;6.50;;;;;;;-2.30;86.80;102367.91;1705118;84;21028;-71
2022/02/12 06:12:17;;;;;;;11.68;6.90;;;;;;;-2.24;86.81;102371.66;1705030;84;21088;-71
2022/02/12 06:14:43;;;;;;;20.95;7.92;;;;;;;-2.24;86.82;102371.66;1705246;84;21145;-71
2022/02/12 06:17:09;;;;;;;20.23;8.90;;;;;;;-2.23;86.85;102369.03;1705260;84;20989;-71
2022/02/12 06:19:35;;;;;;;22.02;10.28;;;;;;;-2.20;86.87;102370.69;1705101;84;21466;-71
2022/02/12 06:22:01;;;;;;;20.55;10.35;;;;;;;-2.18;86.88;102379.37;1705211;84;21478;-72
2022/02/12 06:24:27;;;;;;;24.05;11.80;;;;;;;-2.19;86.88;102377.64;1705365;84;20997;-72
2022/02/12 06:26:57;;;;;;;23.22;8.40;;;;;;;-2.19;86.89;102376.34;1704897;84;21120;-71
2022/02/12 06:29:21;;;;;;;14.47;7.35;;;;;;;-2.20;86.89;102379.39;1705074;84;21050;-71
2022/02/12 06:31:48;;;;;;;31.75;13.88;;;;;;;-2.21;86.92;102382.03;1710174;83;21055;-72
2022/02/12 06:34:14;;;;;;;20.35;10.15;;;;;;;-2.28;86.93;102384.39;1707972;82;21053;-71
2022/02/12 06:36:40;;;;;;;17.52;7.65;;;;;;;-2.32;86.94;102382.78;1705195;84;21024;-70
2022/02/12 06:39:06;;;;;;;23.10;8.65;;;;;;;-2.34;86.93;102384.56;1705085;84;21137;-71
2022/02/12 06:41:32;;;;;;;16.52;8.23;;;;;;;-2.36;86.92;102381.14;1705157;84;27001;-71
2022/02/12 06:43:58;;;;;;;19.05;9.45;;;;;;;-2.34;86.92;102380.20;1704767;84;21040;-72
2022/02/12 06:46:24;;;;;;;16.00;9.10;;;;;;;-2.31;86.93;102385.78;1705432;84;21049;-71
2022/02/12 06:48:50;;;;;;;22.10;8.65;;;;;;;-2.31;86.92;102388.40;1705040;83;21132;-71
2022/02/12 06:51:17;;;;;;;13.28;5.15;;;;;;;-2.31;86.92;102393.18;1704808;84;21061;-71
2022/02/12 06:53:43;;;;;;;23.40;11.18;;;;;;;-2.09;86.92;102391.73;1703468;82;20992;-72
2022/02/12 06:56:10;;;;;;;39.13;19.48;;;;;;;-1.43;86.77;102404.27;1703540;84;20987;-72
2022/02/12 06:58:36;;;;;;;70.67;28.70;;;;;;;-1.13;86.55;102403.39;1703799;84;20991;-72
2022/02/12 07:01:02;;;;;;;101.47;41.80;;;;;;;-1.18;86.51;102403.96;1704638;84;21009;-71
2022/02/12 07:03:28;;;;;;;71.47;29.20;;;;;;;-1.17;86.55;102397.83;1705301;84;21147;-71
2022/02/12 07:05:54;;;;;;;47.58;21.15;;;;;;;-1.02;86.59;102393.42;1699358;81;21084;-73
2022/02/12 07:08:20;;;;;;;19.77;7.78;;;;;;;-0.92;86.67;102393.56;1708716;81;21110;-72
2022/02/12 07:10:46;;;;;;;14.87;6.17;;;;;;;-0.81;86.69;102399.30;1703902;81;20988;-71
2022/02/12 07:13:13;;;;;;;20.15;8.00;;;;;;;-0.80;86.78;102398.40;1704374;81;21001;-72
2022/02/12 07:15:40;;;;;;;17.80;7.70;;;;;;;-0.76;86.84;102403.95;1706462;81;21502;-72
2022/02/12 07:18:06;;;;;;;15.30;6.00;;;;;;;-0.72;86.88;102406.88;1707316;81;21002;-72
2022/02/12 07:20:32;;;;;;;12.43;5.05;;;;;;;-0.66;86.95;102397.95;1708424;81;21088;-72
2022/02/12 07:22:58;;;;;;;10.40;5.05;;;;;;;-0.55;87.00;102401.95;1716770;81;21010;-72
2022/02/12 07:25:25;;;;;;;11.63;4.83;;;;;;;-0.43;87.06;102401.15;1703868;81;21124;-72
2022/02/12 07:27:57;;;;;;;11.50;4.60;;;;;;;-0.32;87.08;102413.00;1704065;84;21226;-72
2022/02/12 07:30:23;;;;;;;12.88;4.40;;;;;;;-0.26;87.08;102415.86;1704241;84;21513;-72
2022/02/12 07:32:49;;;;;;;12.93;3.92;;;;;;;-0.29;87.05;102417.27;1703956;84;21009;-72
2022/02/12 07:35:17;;;;;;;9.05;3.98;;;;;;;-0.26;87.04;102418.48;1704699;84;21561;-72
2022/02/12 07:37:47;;;;;;;19.60;6.40;;;;;;;-0.24;87.03;102420.58;1703988;84;21125;-72
2022/02/12 07:40:14;;;;;;;18.10;6.85;;;;;;;-0.15;87.03;102422.91;1703775;84;21246;-72
2022/02/12 07:42:40;;;;;;;23.73;8.23;;;;;;;-0.06;87.00;102425.20;1708605;82;20962;-70
2022/02/12 07:45:08;;;;;;;29.35;10.00;;;;;;;0.00;86.99;102425.02;1704450;82;21005;-70
2022/02/12 07:47:35;;;;;;;23.60;8.18;;;;;;;0.09;86.98;102419.44;1709554;82;21097;-71
2022/02/12 07:50:03;;;;;;;18.25;5.80;;;;;;;0.19;87.01;102419.97;1704366;82;21046;-70
2022/02/12 07:52:29;;;;;;;21.12;6.58;;;;;;;0.22;86.99;102420.72;1751223;82;21222;-70
2022/02/12 07:54:55;;;;;;;11.97;6.08;;;;;;;0.21;86.99;102423.41;1760477;79;21057;-70
2022/02/12 07:57:22;;;;;;;14.95;5.10;;;;;;;0.22;86.97;102425.09;1703087;84;21030;-71
2022/02/12 07:59:49;;;;;;;53.08;16.70;;;;;;;0.29;86.96;102426.14;1702955;84;21057;-71
2022/02/12 08:02:15;;;;;;;230.47;71.25;;;;;;;0.33;86.89;102429.52;1720554;83;21017;-70
2022/02/12 08:04:41;;;;;;;41.63;15.35;;;;;;;0.32;86.84;102432.59;1702592;84;21178;-70
2022/02/12 08:09:51;;;;;;;17.75;5.97;;;;;;;0.32;86.86;102442.22;1698822;83;21055;-70
2022/02/12 08:12:20;;;;;;;21.52;9.43;;;;;;;0.33;86.79;102450.05;1682351;84;21027;-70
2022/02/12 08:14:49;;;;;;;24.35;11.40;;;;;;;0.40;86.76;102450.69;1686661;84;21043;-70
2022/02/12 08:17:16;;;;;;;22.55;9.30;;;;;;;0.45;86.72;102444.38;1674850;84;21917;-70
2022/02/12 08:19:42;;;;;;;20.08;9.60;;;;;;;0.53;86.70;102449.81;1703106;84;20999;-70
2022/02/12 08:22:08;;;;;;;27.70;15.00;;;;;;;0.53;86.67;102449.81;1703152;84;21046;-70
2022/02/12 08:24:35;;;;;;;23.67;11.05;;;;;;;0.56;86.65;102454.49;1698442;84;21015;-70
2022/02/12 08:27:01;;;;;;;30.97;13.15;;;;;;;0.60;86.60;102459.18;1674433;85;21075;-70
2022/02/12 08:29:30;;;;;;;18.00;8.55;;;;;;;0.59;86.56;102451.75;1697833;84;21161;-70
2022/02/12 08:32:00;;;;;;;26.40;10.80;;;;;;;0.61;86.54;102456.93;1697506;84;21078;-70
2022/02/12 08:34:27;;;;;;;17.30;7.62;;;;;;;0.65;86.50;102459.84;1697777;83;21057;-70
2022/02/12 08:36:54;;;;;;;32.17;13.70;;;;;;;0.65;86.43;102461.16;1694549;84;21071;-70
2022/02/12 08:39:20;;;;;;;24.00;9.78;;;;;;;0.68;86.40;102457.97;1694379;84;21094;-70
2022/02/12 08:41:46;;;;;;;15.20;6.67;;;;;;;0.73;86.36;102459.98;1694351;84;21179;-71
2022/02/12 08:44:12;;;;;;;19.20;7.87;;;;;;;0.78;86.30;102465.90;1696494;84;21094;-70
2022/02/12 08:46:38;;;;;;;26.12;12.47;;;;;;;0.86;86.27;102452.48;1694621;84;21065;-70
2022/02/12 08:49:06;;;;;;;26.12;12.50;;;;;;;0.92;86.18;102450.48;1694712;84;20994;-70
2022/02/12 08:51:42;;;;;;;22.15;9.90;;;;;;;0.95;86.15;102462.67;1696200;84;21026;-70
2022/02/12 08:54:01;;;;;;;27.65;15.23;;;;;;;1.02;86.12;102459.34;1693989;84;21039;-70
2022/02/12 08:56:27;;;;;;;21.50;11.70;;;;;;;1.08;86.11;102459.97;1695268;83;21030;-70
2022/02/12 08:58:53;;;;;;;17.25;8.50;;;;;;;1.15;86.05;102465.38;1673988;83;20891;-70
2022/02/12 09:01:19;;;;;;;16.45;7.65;;;;;;;1.19;86.02;102460.41;1668201;85;21074;-70
2022/02/12 09:03:45;;;;;;;16.48;5.92;;;;;;;1.22;86.02;102455.03;1684831;84;21380;-70
2022/02/12 09:06:12;;;;;;;18.82;7.55;;;;;;;1.25;85.99;102461.48;1695073;84;21816;-70
2022/02/12 09:08:38;;;;;;;14.13;5.72;;;;;;;1.30;85.95;102464.77;1694556;84;21039;-70
2022/02/12 09:11:04;;;;;;;17.00;6.28;;;;;;;1.38;85.86;102467.95;1695491;84;21066;-70
2022/02/12 09:13:30;;;;;;;18.87;7.62;;;;;;;1.44;85.80;102466.39;1695581;84;21050;-70
2022/02/12 09:15:56;;;;;;;14.00;7.33;;;;;;;1.48;85.76;102470.62;1695228;84;21066;-70
2022/02/12 09:18:22;;;;;;;16.57;7.90;;;;;;;1.51;85.73;102462.60;1697739;84;21110;-70
2022/02/12 09:20:48;;;;;;;33.50;17.90;;;;;;;1.57;85.66;102472.48;1699430;83;21053;-70
2022/02/12 09:23:14;;;;;;;39.25;19.00;;;;;;;1.64;85.62;102479.22;1695562;83;21018;-70
2022/02/12 09:25:40;;;;;;;20.62;7.87;;;;;;;1.72;85.55;102483.72;1697740;84;20978;-70
2022/02/12 09:28:06;;;;;;;15.10;5.45;;;;;;;1.81;85.46;102484.64;1697640;84;21058;-70
2022/02/12 09:30:32;;;;;;;14.83;7.53;;;;;;;1.81;85.36;102479.38;1697781;84;21154;-70
2022/02/12 09:32:58;;;;;;;16.95;6.50;;;;;;;1.75;85.29;102486.22;1697577;84;21052;-70
2022/02/12 09:35:25;;;;;;;20.85;8.53;;;;;;;1.75;85.23;102477.87;1696572;83;21029;-70
2022/02/12 09:37:51;;;;;;;20.82;9.00;;;;;;;1.82;85.17;102483.28;1692283;84;21035;-70
2022/02/12 09:40:17;;;;;;;12.45;5.35;;;;;;;1.92;85.08;102475.40;1694909;83;21080;-70
2022/02/12 09:42:47;;;;;;;14.07;5.33;;;;;;;2.02;85.01;102471.91;1695370;84;21087;-70
2022/02/12 09:45:13;;;;;;;11.83;5.10;;;;;;;2.08;84.93;102470.78;1694201;84;28204;-70
2022/02/12 09:47:49;;;;;;;9.70;4.97;;;;;;;2.08;84.86;102472.10;1693182;84;20997;-72
2022/02/12 09:50:20;;;;;;;13.35;4.92;;;;;;;2.10;84.79;102467.19;1657638;86;21015;-70
2022/02/12 09:52:52;;;;;;;13.85;4.20;;;;;;;2.14;84.71;102470.09;1661103;85;21043;-70
2022/02/12 09:55:23;;;;;;;15.13;5.33;;;;;;;2.14;84.64;102471.87;1667946;84;21226;-70
2022/02/12 09:57:49;;;;;;;13.43;3.35;;;;;;;2.21;84.54;102467.59;1664031;84;21085;-71
2022/02/12 10:00:19;;;;;;;10.10;3.65;;;;;;;2.28;84.41;102459.83;1662152;85;22502;-70
2022/02/12 10:02:48;;;;;;;8.90;3.08;;;;;;;2.26;84.26;102472.19;1702766;82;21469;-70
2022/02/12 10:05:23;;;;;;;25.37;7.00;;;;;;;2.23;84.09;102477.59;1676423;84;21435;-70
2022/02/12 10:07:52;;;;;;;14.87;5.62;;;;;;;2.24;83.99;102464.83;1695469;84;21841;-70
2022/02/12 10:10:20;;;;;;;14.87;6.40;;;;;;;2.18;83.84;102465.06;1706672;82;21468;-70
2022/02/12 10:12:47;;;;;;;15.85;5.35;;;;;;;2.24;83.74;102468.78;1703866;84;21003;-70
2022/02/12 10:15:29;;;;;;;36.75;15.40;;;;;;;2.33;83.67;102456.98;1705756;82;21505;-70
2022/02/12 10:17:57;;;;;;;10.45;4.30;;;;;;;2.42;83.57;102464.03;1707984;81;21139;-70
2022/02/12 10:20:34;;;;;;;8.58;3.52;;;;;;;2.49;83.42;102464.16;1718880;81;21155;-70
2022/02/12 10:23:15;;;;;;;6.97;2.87;;;;;;;2.56;83.27;102459.93;1707389;81;21529;-70
2022/02/12 10:25:45;;;;;;;15.40;4.90;;;;;;;2.46;83.03;102459.00;1707164;81;21022;-71
2022/02/12 10:28:13;;;;;;;14.60;4.70;;;;;;;2.53;82.92;102461.39;1706579;81;21667;-71
2022/02/12 10:30:40;;;;;;;9.80;4.15;;;;;;;2.69;82.78;102451.86;1710787;81;21063;-71
2022/02/12 10:33:07;;;;;;;23.22;6.85;;;;;;;2.81;82.65;102453.95;1707396;81;21071;-71
2022/02/12 10:35:35;;;;;;;49.10;16.93;;;;;;;2.84;82.48;102449.86;1727307;81;21038;-71
2022/02/12 10:38:10;;;;;;;18.07;6.58;;;;;;;2.76;82.28;102453.30;1704869;81;21057;-71
2022/02/12 10:40:37;;;;;;;64.10;21.37;;;;;;;2.66;82.14;102459.91;1710199;81;21473;-71
2022/02/12 10:43:04;;;;;;;23.02;8.63;;;;;;;2.56;81.98;102450.71;1680670;83;21002;-71
2022/02/12 10:45:31;;;;;;;15.85;6.83;;;;;;;2.51;81.86;102435.97;1721142;81;21195;-71
2022/02/12 10:47:58;;;;;;;55.12;20.10;;;;;;;2.49;81.77;102437.83;1713141;81;21057;-71
2022/02/12 10:50:27;;;;;;;33.20;7.50;;;;;;;2.54;81.68;102434.97;1724019;81;21502;-71
2022/02/12 10:52:59;;;;;;;34.57;9.77;;;;;;;2.55;81.53;102438.46;1679164;84;21071;-71
2022/02/12 10:55:35;;;;;;;15.95;6.15;;;;;;;2.45;81.30;102432.30;1711833;82;21043;-70
2022/02/12 10:58:13;;;;;;;24.57;7.83;;;;;;;2.45;81.18;102428.34;1726888;81;21545;-71
2022/02/12 11:00:42;;;;;;;10.98;4.67;;;;;;;2.49;81.07;102424.66;1734683;81;21121;-71
2022/02/12 11:03:10;;;;;;;13.72;4.47;;;;;;;2.44;80.96;102418.73;1709948;83;21090;-72
2022/02/12 11:05:38;;;;;;;12.18;4.25;;;;;;;2.43;80.90;102418.33;1673281;84;21050;-73
2022/02/12 11:08:07;;;;;;;11.85;4.35;;;;;;;2.44;80.70;102417.88;1738571;82;21029;-72
2022/02/12 11:10:37;;;;;;;20.08;8.55;;;;;;;2.33;80.58;102412.22;1705739;84;21133;-73
2022/02/12 11:13:04;;;;;;;;;;;;;;;2.24;80.42;102409.55;1708651;84;20963;-72
2022/02/12 11:15:31;;;;;;;11.48;7.42;;;;;;;2.15;80.33;102403.36;1680659;84;20212;-72
2022/02/12 11:17:59;;;;;;;18.73;7.62;;;;;;;2.10;80.25;102398.77;1676324;85;21041;-72
2022/02/12 11:20:26;;;;;;;16.30;9.63;;;;;;;2.14;80.21;102399.04;1688601;84;21043;-72
2022/02/12 11:23:20;;;;;;;11.43;4.87;;;;;;;2.27;80.21;102396.25;1683261;84;21164;-71
2022/02/12 11:26:03;;;;;;;14.68;5.45;;;;;;;2.40;80.12;102389.97;1686424;84;21002;-72
2022/02/12 11:28:32;;;;;;;19.80;7.53;;;;;;;2.53;79.97;102389.83;1700562;84;21495;-72
2022/02/12 11:31:27;;;;;;;20.35;9.18;;;;;;;2.66;79.81;102386.16;1728632;82;21028;-72